createdAt,value
2023-04-09T00:00:15.514Z,9.52
2023-04-09T00:02:17.683Z,10.18
2023-04-09T00:04:19.839Z,10.50
2023-04-09T00:06:22.063Z,10.85
2023-04-09T00:08:24.255Z,10.32
2023-04-09T00:10:26.405Z,11.15
2023-04-09T00:12:30.319Z,10.88
2023-04-09T00:14:32.489Z,10.77
2023-04-09T00:16:34.658Z,11.45
2023-04-09T00:18:36.911Z,10.85
2023-04-09T00:20:39.079Z,10.65
2023-04-09T00:22:41.542Z,10.40
2023-04-09T00:24:43.670Z,10.30
2023-04-09T00:26:46.420Z,10.88
2023-04-09T00:30:50.862Z,11.02
2023-04-09T00:32:53.037Z,10.85
2023-04-09T00:34:55.652Z,10.90
2023-04-09T00:36:57.795Z,10.45
2023-04-09T00:39:00.008Z,11.20
2023-04-09T00:41:02.236Z,10.90
2023-04-09T00:43:04.474Z,11.15
2023-04-09T00:45:06.949Z,10.75
2023-04-09T00:47:09.092Z,11.02
2023-04-09T00:49:11.325Z,11.85
2023-04-09T00:51:13.468Z,10.57
2023-04-09T00:53:16.718Z,11.88
2023-04-09T00:55:19.456Z,10.52
2023-04-09T00:57:23.635Z,10.15
2023-04-09T00:59:26.562Z,10.75
2023-04-09T01:01:28.748Z,11.23
2023-04-09T01:03:31.083Z,11.85
2023-04-09T01:05:52.629Z,10.82
2023-04-09T01:07:57.619Z,10.77
2023-04-09T01:10:12.422Z,11.25
2023-04-09T01:12:33.319Z,10.40
2023-04-09T01:14:49.741Z,10.77
2023-04-09T01:16:56.456Z,11.52
2023-04-09T01:19:03.734Z,11.23
2023-04-09T01:21:07.880Z,10.68
2023-04-09T01:23:16.045Z,10.80
2023-04-09T01:25:36.262Z,11.68
2023-04-09T01:28:12.724Z,11.20
2023-04-09T01:30:16.737Z,10.95
2023-04-09T01:32:20.291Z,10.98
2023-04-09T01:34:22.665Z,11.32
2023-04-09T01:36:25.838Z,10.88
2023-04-09T01:38:28.979Z,10.82
2023-04-09T01:40:31.126Z,11.75
2023-04-09T01:42:33.875Z,12.38
2023-04-09T01:44:37.594Z,10.85
2023-04-09T01:46:40.616Z,10.80
2023-04-09T01:48:43.569Z,10.63
2023-04-09T01:50:45.867Z,11.10
2023-04-09T01:52:48.172Z,11.70
2023-04-09T01:54:50.293Z,12.02
2023-04-09T01:56:52.469Z,12.43
2023-04-09T01:58:54.949Z,11.80
2023-04-09T02:03:02.389Z,12.15
2023-04-09T02:05:07.107Z,12.15
2023-04-09T02:07:16.557Z,12.18
2023-04-09T02:09:19.963Z,12.23
2023-04-09T02:11:24.381Z,12.85
2023-04-09T02:13:27.265Z,12.30
2023-04-09T02:15:31.594Z,12.68
2023-04-09T02:17:33.911Z,12.63
2023-04-09T02:19:43.105Z,12.98
2023-04-09T02:21:45.477Z,12.00
2023-04-09T02:23:47.632Z,12.73
2023-04-09T02:25:50.291Z,11.90
2023-04-09T02:29:54.518Z,12.45
2023-04-09T02:31:56.649Z,12.25
2023-04-09T02:33:58.851Z,12.30
2023-04-09T02:36:00.990Z,11.98
2023-04-09T02:38:03.516Z,12.38
2023-04-09T02:40:05.963Z,11.73
2023-04-09T02:42:08.158Z,12.57
2023-04-09T02:44:10.438Z,12.70
2023-04-09T02:46:12.684Z,11.35
2023-04-09T02:48:14.910Z,12.18
2023-04-09T02:50:17.605Z,11.43
2023-04-09T02:54:22.447Z,12.02
2023-04-09T02:56:24.601Z,10.90
2023-04-09T02:58:26.751Z,12.55
2023-04-09T03:00:28.930Z,12.02
2023-04-09T03:02:31.173Z,11.45
2023-04-09T03:04:33.569Z,12.63
2023-04-09T03:06:35.843Z,13.02
2023-04-09T03:08:37.985Z,12.65
2023-04-09T03:10:40.150Z,13.57
2023-04-09T03:12:44.534Z,14.73
2023-04-09T03:14:49.649Z,14.20
2023-04-09T03:16:52.969Z,14.55
2023-04-09T03:18:55.149Z,14.65
2023-04-09T03:20:57.273Z,14.25
2023-04-09T03:22:59.487Z,15.10
2023-04-09T03:25:01.621Z,14.68
2023-04-09T03:27:03.756Z,15.52
2023-04-09T03:29:07.184Z,15.43
2023-04-09T03:31:09.331Z,16.95
2023-04-09T03:33:11.477Z,15.57
2023-04-09T03:35:15.668Z,14.98
2023-04-09T03:37:17.849Z,14.88
2023-04-09T03:39:20.058Z,15.85
2023-04-09T03:41:22.214Z,14.63
2023-04-09T03:43:24.369Z,15.70
2023-04-09T03:45:26.527Z,14.73
2023-04-09T03:47:28.860Z,15.05
2023-04-09T03:49:31.009Z,14.07
2023-04-09T03:51:33.143Z,13.85
2023-04-09T03:53:35.440Z,14.07
2023-04-09T03:55:38.466Z,13.05
2023-04-09T03:57:40.705Z,12.82
2023-04-09T03:59:42.857Z,13.07
2023-04-09T04:01:45.126Z,12.85
2023-04-09T04:03:47.420Z,12.20
2023-04-09T04:05:49.757Z,12.55
2023-04-09T04:07:58.842Z,12.23
2023-04-09T04:10:00.972Z,12.40
2023-04-09T04:12:03.261Z,13.23
2023-04-09T04:14:05.640Z,13.82
2023-04-09T04:16:08.972Z,12.05
2023-04-09T04:18:11.502Z,12.15
2023-04-09T04:20:13.761Z,12.50
2023-04-09T04:22:16.145Z,12.05
2023-04-09T04:24:18.272Z,11.82
2023-04-09T04:26:20.389Z,13.07
2023-04-09T04:28:22.536Z,12.55
2023-04-09T04:30:24.821Z,13.23
2023-04-09T04:32:27.405Z,12.82
2023-04-09T04:36:31.657Z,12.75
2023-04-09T04:38:34.711Z,13.43
2023-04-09T04:40:37.012Z,12.45
2023-04-09T04:42:39.161Z,13.32
2023-04-09T04:44:41.313Z,12.80
2023-04-09T04:46:43.465Z,13.85
2023-04-09T04:48:45.639Z,15.00
2023-04-09T04:50:47.807Z,14.57
2023-04-09T04:52:50.008Z,15.27
2023-04-09T04:54:52.161Z,14.45
2023-04-09T04:56:54.309Z,15.23
2023-04-09T04:58:56.445Z,15.00
2023-04-09T05:00:58.767Z,16.88
2023-04-09T05:03:01.116Z,15.60
2023-04-09T05:05:03.387Z,15.95
2023-04-09T05:07:05.545Z,15.40
2023-04-09T05:09:07.706Z,15.82
2023-04-09T05:11:12.731Z,15.55
2023-04-09T05:13:14.870Z,14.57
2023-04-09T05:15:17.143Z,14.60
2023-04-09T05:17:19.344Z,15.32
2023-04-09T05:19:21.522Z,15.32
2023-04-09T05:21:23.712Z,15.20
2023-04-09T05:23:26.299Z,15.50
2023-04-09T05:25:28.475Z,15.07
2023-04-09T05:27:30.812Z,14.48
2023-04-09T05:29:32.954Z,14.75
2023-04-09T05:31:35.878Z,16.50
2023-04-09T05:33:38.332Z,14.45
2023-04-09T05:35:40.567Z,15.60
2023-04-09T05:37:42.809Z,14.32
2023-04-09T05:39:45.007Z,15.25
2023-04-09T05:41:47.322Z,16.05
2023-04-09T05:43:49.540Z,16.60
2023-04-09T05:45:51.751Z,16.40
2023-04-09T05:47:53.956Z,15.93
2023-04-09T05:49:56.216Z,15.65
2023-04-09T05:51:58.388Z,16.23
2023-04-09T05:54:00.525Z,17.85
2023-04-09T05:56:02.711Z,18.00
2023-04-09T05:58:04.866Z,16.77
2023-04-09T06:00:08.244Z,18.08
2023-04-09T06:02:10.569Z,17.55
2023-04-09T06:04:12.968Z,17.88
2023-04-09T06:06:15.441Z,18.95
2023-04-09T06:08:17.613Z,18.17
2023-04-09T06:10:19.766Z,19.85
2023-04-09T06:12:21.914Z,18.52
2023-04-09T06:14:24.040Z,19.17
2023-04-09T06:16:26.307Z,19.30
2023-04-09T06:18:28.666Z,18.63
2023-04-09T06:20:31.394Z,19.77
2023-04-09T06:22:33.624Z,19.02
2023-04-09T06:24:35.741Z,19.77
2023-04-09T06:26:37.987Z,18.25
2023-04-09T06:28:40.179Z,19.20
2023-04-09T06:30:42.363Z,20.13
2023-04-09T06:32:54.597Z,19.58
2023-04-09T06:36:59.498Z,18.60
2023-04-09T06:39:01.635Z,18.17
2023-04-09T06:41:06.732Z,19.33
2023-04-09T06:43:09.688Z,18.20
2023-04-09T06:45:12.175Z,17.48
2023-04-09T06:47:14.363Z,18.23
2023-04-09T06:49:16.565Z,17.48
2023-04-09T06:51:18.687Z,16.05
2023-04-09T06:53:20.882Z,15.23
2023-04-09T06:55:23.096Z,15.43
2023-04-09T06:57:25.559Z,15.98
2023-04-09T06:59:27.699Z,16.02
2023-04-09T07:01:29.973Z,15.85
2023-04-09T07:03:32.397Z,15.82
2023-04-09T07:05:34.619Z,15.18
2023-04-09T07:07:36.769Z,14.70
2023-04-09T07:09:38.920Z,14.32
2023-04-09T07:11:41.150Z,13.93
2023-04-09T07:13:43.572Z,13.02
2023-04-09T07:15:45.990Z,13.57
2023-04-09T07:17:48.216Z,13.18
2023-04-09T07:19:51.620Z,13.07
2023-04-09T07:21:53.753Z,12.88
2023-04-09T07:23:56.439Z,13.23
2023-04-09T07:28:03.037Z,12.05
2023-04-09T07:30:05.569Z,12.23
2023-04-09T07:32:07.747Z,11.98
2023-04-09T07:34:09.920Z,12.25
2023-04-09T07:36:12.470Z,11.60
2023-04-09T07:38:14.903Z,10.93
2023-04-09T07:40:17.152Z,12.75
2023-04-09T07:42:19.338Z,12.77
2023-04-09T07:44:21.595Z,12.57
2023-04-09T07:46:23.771Z,12.23
2023-04-09T07:48:28.106Z,11.27
2023-04-09T07:50:30.508Z,10.75
2023-04-09T07:52:32.667Z,12.40
2023-04-09T07:54:35.456Z,11.82
2023-04-09T07:56:37.742Z,11.63
2023-04-09T07:58:39.922Z,11.45
2023-04-09T08:00:42.194Z,12.45
2023-04-09T08:02:44.796Z,12.88
2023-04-09T08:04:47.406Z,12.18
2023-04-09T08:06:53.582Z,11.15
2023-04-09T08:08:55.793Z,12.43
2023-04-09T08:10:57.950Z,12.98
2023-04-09T08:13:00.401Z,13.20
2023-04-09T08:15:03.811Z,13.30
2023-04-09T08:17:06.101Z,13.88
2023-04-09T08:19:08.780Z,12.75
2023-04-09T08:23:13.090Z,12.35
2023-04-09T08:25:15.433Z,12.63
2023-04-09T08:27:17.983Z,12.40
2023-04-09T08:29:20.110Z,13.57
2023-04-09T08:31:22.355Z,13.00
2023-04-09T08:33:24.552Z,12.68
2023-04-09T08:35:28.456Z,13.63
2023-04-09T08:37:30.559Z,12.82
2023-04-09T08:39:32.759Z,11.85
2023-04-09T08:41:35.166Z,13.18
2023-04-09T08:43:56.389Z,12.73
2023-04-09T08:46:00.835Z,11.65
2023-04-09T08:48:04.091Z,11.07
2023-04-09T08:50:06.480Z,11.35
2023-04-09T08:52:08.867Z,11.52
2023-04-09T08:54:11.079Z,11.35
2023-04-09T08:56:13.934Z,13.00
2023-04-09T08:58:16.069Z,11.15
2023-04-09T09:00:18.240Z,11.38
2023-04-09T09:02:20.592Z,10.88
2023-04-09T09:04:22.881Z,11.38
2023-04-09T09:06:27.208Z,11.50
2023-04-09T09:08:30.670Z,11.57
2023-04-09T09:10:45.959Z,11.10
2023-04-09T09:12:48.140Z,11.10
2023-04-09T09:14:50.265Z,12.50
2023-04-09T09:16:58.658Z,12.05
2023-04-09T09:19:02.985Z,12.40
2023-04-09T09:21:11.780Z,11.88
2023-04-09T09:23:14.232Z,12.15
2023-04-09T09:25:16.353Z,12.48
2023-04-09T09:27:39.627Z,12.50
2023-04-09T09:31:49.147Z,12.27
2023-04-09T09:33:51.643Z,13.18
2023-04-09T09:35:55.185Z,13.02
2023-04-09T09:38:06.649Z,12.70
2023-04-09T09:40:09.497Z,12.93
2023-04-09T09:42:11.670Z,12.18
2023-04-09T09:44:30.981Z,13.80
2023-04-09T09:46:38.361Z,12.82
2023-04-09T09:48:40.665Z,12.43
2023-04-09T09:50:43.128Z,12.68
2023-04-09T09:52:46.931Z,12.52
2023-04-09T09:54:50.584Z,11.63
2023-04-09T09:56:53.464Z,10.35
2023-04-09T09:59:03.931Z,10.77
2023-04-09T10:01:11.247Z,10.60
2023-04-09T10:03:16.173Z,11.02
2023-04-09T10:05:18.688Z,10.82
2023-04-09T10:07:22.344Z,11.18
2023-04-09T10:09:27.949Z,10.82
2023-04-09T10:11:30.444Z,10.25
2023-04-09T10:13:40.384Z,10.52
2023-04-09T10:15:44.666Z,10.18
2023-04-09T10:17:46.899Z,10.75
2023-04-09T10:20:07.954Z,10.18
2023-04-09T10:22:11.493Z,10.88
2023-04-09T10:24:13.954Z,11.38
2023-04-09T10:26:16.391Z,11.73
2023-04-09T10:28:18.996Z,11.05
2023-04-09T10:30:33.494Z,9.85
2023-04-09T10:32:36.848Z,9.95
2023-04-09T10:34:43.950Z,10.70
2023-04-09T10:36:46.887Z,9.52
2023-04-09T10:38:51.063Z,9.43
2023-04-09T10:40:53.490Z,9.80
2023-04-09T10:42:56.933Z,10.05
2023-04-09T10:45:06.244Z,10.50
2023-04-09T10:47:09.802Z,10.32
2023-04-09T10:49:12.213Z,10.02
2023-04-09T10:51:19.700Z,10.20
2023-04-09T10:53:25.569Z,9.70
2023-04-09T10:55:31.527Z,9.20
2023-04-09T10:57:36.776Z,9.13
2023-04-09T10:59:42.769Z,10.43
2023-04-09T11:01:53.567Z,9.48
2023-04-09T11:04:16.090Z,9.10
2023-04-09T11:06:21.303Z,9.53
2023-04-09T11:08:23.872Z,9.15
2023-04-09T11:10:26.817Z,11.23
2023-04-09T11:12:29.025Z,10.77
2023-04-09T11:14:31.770Z,10.32
2023-04-09T11:18:37.173Z,12.13
2023-04-09T11:20:39.630Z,13.77
2023-04-09T11:22:41.978Z,13.57
2023-04-09T11:24:44.908Z,14.35
2023-04-09T11:26:48.652Z,14.55
2023-04-09T11:29:05.399Z,14.55
2023-04-09T11:31:07.706Z,15.02
2023-04-09T11:33:10.424Z,15.48
2023-04-09T11:37:18.012Z,15.20
2023-04-09T11:39:20.280Z,14.30
2023-04-09T11:41:35.468Z,15.10
2023-04-09T11:43:37.702Z,14.38
2023-04-09T11:45:39.963Z,13.32
2023-04-09T11:47:42.533Z,13.43
2023-04-09T11:49:47.226Z,14.77
2023-04-09T11:51:49.623Z,14.93
2023-04-09T11:53:51.803Z,14.50
2023-04-09T11:55:54.261Z,14.05
2023-04-09T11:58:03.159Z,13.77
2023-04-09T12:00:09.141Z,14.60
2023-04-09T12:02:11.394Z,14.65
2023-04-09T12:04:20.500Z,14.15
2023-04-09T12:06:24.833Z,13.02
2023-04-09T12:08:28.200Z,14.35
2023-04-09T12:10:31.217Z,14.05
2023-04-09T12:12:40.504Z,14.23
2023-04-09T12:14:46.618Z,14.40
2023-04-09T12:16:51.879Z,13.68
2023-04-09T12:18:55.838Z,13.25
2023-04-09T12:20:58.032Z,12.55
2023-04-09T12:23:01.305Z,12.73
2023-04-09T12:25:03.458Z,12.52
2023-04-09T12:27:05.628Z,12.50
2023-04-09T12:29:07.960Z,12.68
2023-04-09T12:31:10.935Z,13.32
2023-04-09T12:33:13.207Z,12.68
2023-04-09T12:35:16.012Z,13.05
2023-04-09T12:37:18.220Z,11.73
2023-04-09T12:39:21.022Z,12.55
2023-04-09T12:43:25.497Z,12.48
2023-04-09T12:45:28.167Z,12.05
2023-04-09T12:47:30.551Z,12.38
2023-04-09T12:49:33.002Z,12.35
2023-04-09T12:51:35.183Z,13.50
2023-04-09T12:53:37.463Z,13.52
2023-04-09T12:55:42.220Z,13.25
2023-04-09T12:57:55.116Z,12.80
2023-04-09T12:59:57.326Z,14.63
2023-04-09T13:01:59.688Z,13.77
2023-04-09T13:04:02.071Z,13.68
2023-04-09T13:06:04.356Z,14.15
2023-04-09T13:08:06.810Z,13.38
2023-04-09T13:10:09.166Z,12.98
2023-04-09T13:12:15.515Z,12.23
2023-04-09T13:14:17.762Z,11.55
2023-04-09T13:16:19.932Z,11.38
2023-04-09T13:18:22.093Z,12.27
2023-04-09T13:20:24.342Z,12.80
2023-04-09T13:22:26.498Z,12.13
2023-04-09T13:24:28.801Z,13.63
2023-04-09T13:26:31.752Z,12.48
2023-04-09T13:28:34.029Z,10.02
2023-04-09T13:30:36.506Z,9.90
2023-04-09T13:32:38.832Z,9.50
2023-04-09T13:34:41.088Z,11.98
2023-04-09T13:36:43.293Z,12.43
2023-04-09T13:38:45.622Z,12.13
2023-04-09T13:40:47.800Z,12.73
2023-04-09T13:42:49.978Z,12.73
2023-04-09T13:44:52.201Z,12.45
2023-04-09T13:46:54.366Z,12.07
2023-04-09T13:48:56.536Z,11.82
2023-04-09T13:50:58.751Z,11.88
2023-04-09T13:53:03.237Z,12.55
2023-04-09T13:55:05.991Z,11.15
2023-04-09T13:59:10.391Z,11.13
2023-04-09T14:01:12.814Z,10.85
2023-04-09T14:03:15.246Z,11.57
2023-04-09T14:05:17.697Z,11.50
2023-04-09T14:07:19.881Z,10.95
2023-04-09T14:09:22.046Z,10.30
2023-04-09T14:11:24.253Z,11.02
2023-04-09T14:13:26.483Z,10.52
2023-04-09T14:15:28.657Z,10.90
2023-04-09T14:17:31.052Z,10.18
2023-04-09T14:19:33.299Z,8.85
2023-04-09T14:21:35.479Z,8.88
2023-04-09T14:23:37.864Z,9.70
2023-04-09T14:25:40.060Z,10.48
2023-04-09T14:27:42.203Z,9.65
2023-04-09T14:29:44.360Z,9.52
2023-04-09T14:31:47.324Z,9.95
2023-04-09T14:33:49.823Z,9.73
2023-04-09T14:35:52.398Z,9.80
2023-04-09T14:37:55.134Z,9.38
2023-04-09T14:41:59.411Z,9.57
2023-04-09T14:44:01.565Z,8.75
2023-04-09T14:46:04.135Z,8.88
2023-04-09T14:48:06.426Z,9.00
2023-04-09T14:50:10.217Z,9.90
2023-04-09T14:52:12.354Z,10.02
2023-04-09T14:54:14.519Z,8.93
2023-04-09T14:56:16.951Z,8.57
2023-04-09T14:58:19.126Z,9.48
2023-04-09T15:00:21.496Z,8.57
2023-04-09T15:02:23.859Z,10.07
2023-04-09T15:04:26.520Z,9.88
2023-04-09T15:06:29.855Z,9.30
2023-04-09T15:08:32.081Z,9.15
2023-04-09T15:10:34.270Z,9.73
2023-04-09T15:12:36.454Z,9.15
2023-04-09T15:14:38.594Z,9.82
2023-04-09T15:16:40.883Z,9.93
2023-04-09T15:18:43.058Z,9.70
2023-04-09T15:20:45.551Z,9.82
2023-04-09T15:22:47.681Z,9.98
2023-04-09T15:24:50.460Z,9.43
2023-04-09T15:29:04.834Z,9.48
2023-04-09T15:31:07.047Z,9.45
2023-04-09T15:33:09.286Z,9.73
2023-04-09T15:35:13.644Z,9.52
2023-04-09T15:37:16.012Z,7.78
2023-04-09T15:39:20.385Z,8.00
2023-04-09T15:41:24.000Z,8.70
2023-04-09T15:43:27.414Z,8.27
2023-04-09T15:45:29.672Z,7.75
2023-04-09T15:47:33.418Z,8.05
2023-04-09T15:49:36.926Z,8.15
2023-04-09T15:51:39.159Z,6.95
2023-04-09T15:53:41.362Z,7.43
2023-04-09T15:55:43.622Z,7.78
2023-04-09T15:57:46.871Z,7.60
2023-04-09T15:59:49.024Z,7.75
2023-04-09T16:01:51.266Z,7.07
2023-04-09T16:03:53.567Z,7.45
2023-04-09T16:05:56.329Z,6.47
2023-04-09T16:07:59.996Z,6.43
2023-04-09T16:10:02.795Z,6.68
2023-04-09T16:12:05.046Z,6.28
2023-04-09T16:14:10.572Z,6.60
2023-04-09T16:16:12.796Z,6.90
2023-04-09T16:18:14.960Z,6.63
2023-04-09T16:20:17.215Z,6.75
2023-04-09T16:22:19.460Z,7.03
2023-04-09T16:24:21.674Z,7.22
2023-04-09T16:26:23.824Z,7.22
2023-04-09T16:28:26.557Z,7.80
2023-04-09T16:32:32.873Z,7.05
2023-04-09T16:34:35.236Z,7.20
2023-04-09T16:36:37.473Z,7.07
2023-04-09T16:38:39.618Z,7.28
2023-04-09T16:40:41.765Z,6.80
2023-04-09T16:42:43.932Z,6.82
2023-04-09T16:44:46.603Z,6.70
2023-04-09T16:46:49.154Z,7.20
2023-04-09T16:48:51.490Z,7.07
2023-04-09T16:50:53.897Z,7.03
2023-04-09T16:52:56.203Z,6.53
2023-04-09T16:54:58.959Z,6.30
2023-04-09T16:59:04.782Z,6.50
2023-04-09T17:01:07.032Z,7.10
2023-04-09T17:03:09.302Z,6.30
2023-04-09T17:05:11.622Z,6.72
2023-04-09T17:07:13.769Z,6.38
2023-04-09T17:09:16.485Z,6.07
2023-04-09T17:13:21.396Z,5.90
2023-04-09T17:17:27.202Z,5.95
2023-04-09T17:19:29.344Z,6.03
2023-04-09T17:21:31.495Z,6.30
2023-04-09T17:23:33.691Z,6.32
2023-04-09T17:25:35.889Z,5.82
2023-04-09T17:27:38.052Z,5.80
2023-04-09T17:29:41.278Z,6.05
2023-04-09T17:31:43.668Z,6.30
2023-04-09T17:33:48.873Z,6.55
2023-04-09T17:35:51.156Z,6.13
2023-04-09T17:37:53.539Z,6.43
2023-04-09T17:39:56.022Z,6.50
2023-04-09T17:42:00.534Z,6.18
2023-04-09T17:44:03.111Z,6.57
2023-04-09T17:46:07.422Z,6.82
2023-04-09T17:48:09.875Z,6.65
2023-04-09T17:50:12.330Z,5.85
2023-04-09T17:52:14.804Z,6.35
2023-04-09T17:54:16.994Z,6.00
2023-04-09T17:56:19.201Z,7.05
2023-04-09T17:58:21.425Z,6.68
2023-04-09T18:00:23.645Z,6.90
2023-04-09T18:02:26.203Z,7.40
2023-04-09T18:06:31.475Z,7.93
2023-04-09T18:08:33.634Z,8.00
2023-04-09T18:10:36.140Z,7.65
2023-04-09T18:12:38.462Z,7.53
2023-04-09T18:14:40.603Z,7.55
2023-04-09T18:16:42.993Z,7.15
2023-04-09T18:18:45.277Z,7.50
2023-04-09T18:20:52.253Z,7.25
2023-04-09T18:22:55.632Z,6.93
2023-04-09T18:24:57.780Z,6.50
2023-04-09T18:27:02.177Z,7.30
2023-04-09T18:29:04.547Z,7.15
2023-04-09T18:31:07.066Z,7.13
2023-04-09T18:33:09.288Z,7.70
2023-04-09T18:35:11.555Z,7.63
2023-04-09T18:37:14.196Z,7.53
2023-04-09T18:39:16.668Z,7.60
2023-04-09T18:41:25.351Z,7.88
2023-04-09T18:43:27.516Z,7.72
2023-04-09T18:45:29.681Z,7.43
2023-04-09T18:47:31.839Z,8.05
2023-04-09T18:49:34.173Z,7.68
2023-04-09T18:51:36.646Z,7.22
2023-04-09T18:53:38.826Z,7.28
2023-04-09T18:55:41.049Z,7.80
2023-04-09T18:57:44.232Z,7.30
2023-04-09T18:59:47.090Z,8.48
2023-04-09T19:01:49.274Z,8.23
2023-04-09T19:03:52.289Z,7.57
2023-04-09T19:05:54.582Z,8.27
2023-04-09T19:07:59.906Z,8.23
2023-04-09T19:10:02.256Z,8.93
2023-04-09T19:12:04.563Z,8.65
2023-04-09T19:14:06.749Z,8.05
2023-04-09T19:16:09.352Z,8.80
2023-04-09T19:18:11.728Z,8.70
2023-04-09T19:20:14.256Z,9.00
2023-04-09T19:22:16.564Z,9.32
2023-04-09T19:24:18.740Z,9.57
2023-04-09T19:26:22.149Z,8.88
2023-04-09T19:28:24.524Z,8.90
2023-04-09T19:30:26.708Z,9.48
2023-04-09T19:32:28.977Z,9.65
2023-04-09T19:34:31.265Z,9.93
2023-04-09T19:36:34.012Z,9.70
2023-04-09T19:38:36.383Z,10.00
2023-04-09T19:40:38.564Z,10.27
2023-04-09T19:42:41.171Z,10.20
2023-04-09T19:46:45.629Z,11.23
2023-04-09T19:48:48.428Z,10.32
2023-04-09T19:50:50.574Z,11.07
2023-04-09T19:52:52.960Z,12.43
2023-04-09T19:54:58.236Z,12.90
2023-04-09T19:57:01.390Z,11.30
2023-04-09T19:59:03.622Z,11.68
2023-04-09T20:01:05.874Z,11.05
2023-04-09T20:03:08.181Z,11.23
2023-04-09T20:05:10.574Z,11.82
2023-04-09T20:07:12.772Z,12.13
2023-04-09T20:09:17.164Z,11.50
2023-04-09T20:11:20.400Z,11.18
2023-04-09T20:13:23.385Z,11.95
2023-04-09T20:15:26.128Z,12.45
2023-04-09T20:19:30.395Z,12.73
2023-04-09T20:21:32.639Z,12.85
2023-04-09T20:23:34.877Z,12.88
2023-04-09T20:25:37.044Z,13.13
2023-04-09T20:27:39.444Z,12.90
2023-04-09T20:29:41.631Z,15.05
2023-04-09T20:31:43.856Z,15.02
2023-04-09T20:33:46.088Z,14.38
2023-04-09T20:35:49.739Z,14.30
2023-04-09T20:37:54.317Z,13.20
2023-04-09T20:39:58.467Z,12.98
2023-04-09T20:42:00.642Z,13.40
2023-04-09T20:44:02.836Z,13.45
2023-04-09T20:46:05.945Z,13.05
2023-04-09T20:48:08.315Z,14.05
2023-04-09T20:50:10.778Z,14.27
2023-04-09T20:52:13.170Z,13.70
2023-04-09T20:54:17.993Z,14.30
2023-04-09T20:56:20.203Z,13.32
2023-04-09T20:58:22.310Z,13.65
2023-04-09T21:00:24.642Z,13.88
2023-04-09T21:02:26.851Z,14.63
2023-04-09T21:04:29.578Z,14.30
2023-04-09T21:08:33.983Z,13.88
2023-04-09T21:10:36.153Z,13.25
2023-04-09T21:12:38.347Z,14.23
2023-04-09T21:14:40.681Z,13.57
2023-04-09T21:16:42.906Z,13.43
2023-04-09T21:18:45.146Z,14.15
2023-04-09T21:20:47.553Z,12.68
2023-04-09T21:22:49.778Z,13.20
2023-04-09T21:24:53.290Z,14.73
2023-04-09T21:26:55.580Z,14.27
2023-04-09T21:28:57.822Z,14.48
2023-04-09T21:31:00.003Z,14.07
2023-04-09T21:33:02.662Z,14.23
2023-04-09T21:37:07.085Z,13.45
2023-04-09T21:39:09.255Z,14.05
2023-04-09T21:41:11.423Z,13.07
2023-04-09T21:43:13.686Z,13.55
2023-04-09T21:45:16.501Z,13.18
2023-04-09T21:47:18.710Z,13.13
2023-04-09T21:49:20.850Z,12.88
2023-04-09T21:51:22.992Z,13.55
2023-04-09T21:53:25.197Z,13.63
2023-04-09T21:55:27.409Z,12.68
2023-04-09T21:57:29.667Z,13.10
2023-04-09T21:59:31.789Z,12.85
2023-04-09T22:01:35.095Z,12.55
2023-04-09T22:03:39.430Z,13.02
2023-04-09T22:05:41.918Z,12.98
2023-04-09T22:07:44.652Z,12.77
2023-04-09T22:11:49.527Z,12.10
2023-04-09T22:13:51.672Z,12.48
2023-04-09T22:15:53.813Z,12.98
2023-04-09T22:17:56.238Z,12.52
2023-04-09T22:19:58.581Z,13.05
2023-04-09T22:22:00.780Z,13.13
2023-04-09T22:24:02.934Z,13.60
2023-04-09T22:26:05.173Z,12.65
2023-04-09T22:28:07.438Z,14.57
2023-04-09T22:30:09.798Z,13.45
2023-04-09T22:32:12.041Z,13.15
2023-04-09T22:34:20.577Z,13.27
2023-04-09T22:36:24.173Z,13.55
2023-04-09T22:38:26.525Z,12.30
2023-04-09T22:40:28.727Z,12.27
2023-04-09T22:42:31.187Z,13.50
2023-04-09T22:44:33.362Z,13.10
2023-04-09T22:46:35.821Z,13.70
2023-04-09T22:48:55.553Z,13.68
2023-04-09T22:50:58.722Z,12.93
2023-04-09T22:53:01.367Z,12.35
2023-04-09T22:57:05.767Z,12.90
2023-04-09T22:59:07.903Z,12.82
2023-04-09T23:01:10.268Z,12.73
2023-04-09T23:03:12.636Z,12.23
2023-04-09T23:05:14.890Z,14.13
2023-04-09T23:07:17.088Z,12.80
2023-04-09T23:09:19.496Z,13.27
2023-04-09T23:11:21.802Z,13.50
2023-04-09T23:13:23.949Z,13.27
2023-04-09T23:15:26.093Z,13.40
2023-04-09T23:17:28.278Z,13.48
2023-04-09T23:19:30.417Z,13.63
2023-04-09T23:21:32.665Z,12.98
2023-04-09T23:23:35.441Z,12.60
2023-04-09T23:25:38.344Z,13.32
2023-04-09T23:27:40.929Z,13.30
2023-04-09T23:31:45.500Z,12.38
2023-04-09T23:33:47.664Z,12.75
2023-04-09T23:35:49.840Z,12.68
2023-04-09T23:37:52.019Z,13.02
2023-04-09T23:39:54.332Z,13.20
2023-04-09T23:41:57.813Z,12.20
2023-04-09T23:43:59.990Z,13.07
2023-04-09T23:46:02.107Z,12.48
2023-04-09T23:48:04.546Z,12.32
2023-04-09T23:50:07.931Z,12.02
2023-04-09T23:52:10.094Z,11.60
2023-04-09T23:54:12.240Z,11.93
2023-04-09T23:56:15.078Z,12.02
2023-04-09T23:58:17.678Z,11.93
